Time;durP1;ratioP1;P1;durP2;ratioP2;P2;SDS_P1;SDS_P2;PMS_P1;PMS_P2;Temp;Humidity;BMP_temperature;BMP_pressure;BME280_temperature;BME280_humidity;BME280_pressure;Samples;Min_cycle;Max_cycle;Signal;HPM_P1;HPM_P2
2023/06/27 00:01:17;;;;;;;3.47;1.75;;;;;;;22.63;45.76;98976.41;5008846;28;103815;-70
2023/06/27 00:03:45;;;;;;;3.80;1.55;;;;;;;22.77;45.94;98977.50;5006792;28;103330;-69
2023/06/27 00:06:19;;;;;;;3.35;1.92;;;;;;;22.75;45.67;98980.38;5008693;28;103211;-69
2023/06/27 00:08:47;;;;;;;2.97;1.60;;;;;;;22.70;46.33;98982.78;5004431;28;102538;-69
2023/06/27 00:11:16;;;;;;;3.30;1.70;;;;;;;22.79;45.81;98978.16;5004209;28;102803;-70
2023/06/27 00:13:44;;;;;;;3.20;1.75;;;;;;;22.84;45.76;98970.38;5006664;28;104497;-70
2023/06/27 00:16:15;;;;;;;3.60;2.00;;;;;;;22.09;47.75;98970.19;5009468;28;103221;-69
2023/06/27 00:18:47;;;;;;;4.88;2.30;;;;;;;21.08;49.92;98981.84;5004906;28;102561;-69
2023/06/27 00:21:16;;;;;;;3.13;2.08;;;;;;;21.46;49.28;98982.91;5002991;28;103459;-69
2023/06/27 00:23:48;;;;;;;2.67;1.50;;;;;;;21.93;48.30;98978.38;5006426;28;104192;-70
2023/06/27 00:26:17;;;;;;;3.75;2.00;;;;;;;22.21;47.55;98981.41;5007059;28;103179;-69
2023/06/27 00:28:46;;;;;;;4.15;1.40;;;;;;;22.24;47.71;98981.91;5022289;27;102899;-69
2023/06/27 00:31:14;;;;;;;2.22;1.65;;;;;;;22.33;47.78;98986.22;5005983;28;103983;-70
2023/06/27 00:33:44;;;;;;;4.60;2.00;;;;;;;21.73;49.21;98988.69;5012236;28;104194;-70
2023/06/27 00:36:12;;;;;;;4.00;1.70;;;;;;;21.57;49.44;98990.59;5009349;28;103223;-69
2023/06/27 00:38:39;;;;;;;4.60;2.00;;;;;;;22.06;48.35;98997.50;5024712;27;102724;-69
2023/06/27 00:41:07;;;;;;;2.70;1.60;;;;;;;22.22;47.98;98985.78;5004469;28;104403;-69
2023/06/27 00:43:36;;;;;;;3.55;1.90;;;;;;;22.26;48.05;98979.03;4997975;27;104091;-70
2023/06/27 00:46:08;;;;;;;2.70;1.60;;;;;;;22.37;47.76;98987.53;5022571;27;104375;-70
2023/06/27 00:48:37;;;;;;;3.70;1.77;;;;;;;22.01;49.17;98986.41;5006743;28;102627;-70
2023/06/27 00:51:08;;;;;;;1.42;1.25;;;;;;;22.38;47.68;98989.19;5023978;27;103847;-70
2023/06/27 00:53:37;;;;;;;3.47;1.70;;;;;;;22.44;47.91;98991.19;5003215;28;104216;-70
2023/06/27 00:56:07;;;;;;;2.22;1.60;;;;;;;22.54;47.44;98993.63;5025738;27;104192;-70
2023/06/27 00:58:37;;;;;;;3.60;2.07;;;;;;;22.05;49.26;98987.72;5003324;28;102831;-70
2023/06/27 01:01:05;;;;;;;3.33;1.70;;;;;;;22.32;48.51;98994.44;5005422;28;104222;-70
2023/06/27 01:03:33;;;;;;;3.83;1.90;;;;;;;22.37;48.42;98987.53;5009143;28;104272;-70
2023/06/27 01:06:08;;;;;;;4.45;1.90;;;;;;;22.33;48.54;98991.59;5007568;28;103198;-70
2023/06/27 01:08:42;;;;;;;2.90;1.70;;;;;;;22.44;47.74;98993.88;5002286;27;105539;-70
2023/06/27 01:11:16;;;;;;;2.10;1.60;;;;;;;22.36;48.14;98999.31;5016478;27;103894;-70
2023/06/27 01:13:49;;;;;;;3.58;2.05;;;;;;;22.10;48.34;99001.47;5008604;28;104257;-70
2023/06/27 01:16:20;;;;;;;3.85;1.90;;;;;;;22.14;47.69;99008.19;5005271;28;104336;-70
2023/06/27 01:18:48;;;;;;;3.65;2.05;;;;;;;22.33;47.50;99013.13;5012299;28;102567;-70
2023/06/27 01:21:20;;;;;;;3.85;1.95;;;;;;;22.22;47.54;99010.84;5008084;27;104121;-70
2023/06/27 01:23:53;;;;;;;1.63;1.53;;;;;;;22.56;46.91;99001.53;5006191;28;105518;-69
2023/06/27 01:26:22;;;;;;;2.78;1.92;;;;;;;22.58;46.85;99007.56;5010685;28;103204;-70
2023/06/27 01:28:50;;;;;;;2.30;1.70;;;;;;;22.58;46.67;99002.19;5002708;28;103529;-70
2023/06/27 01:31:24;;;;;;;5.13;2.28;;;;;;;22.42;47.00;98998.63;5017674;27;104494;-70
2023/06/27 01:34:00;;;;;;;2.40;1.50;;;;;;;22.36;46.95;99001.16;5004499;28;104190;-70
2023/06/27 01:36:36;;;;;;;5.43;2.30;;;;;;;21.94;47.97;99001.56;5008423;28;103166;-70
2023/06/27 01:39:09;;;;;;;1.85;1.50;;;;;;;22.27;46.76;99000.38;5012470;28;102672;-70
2023/06/27 01:41:44;;;;;;;4.27;1.93;;;;;;;22.46;47.11;99002.59;5008816;28;104145;-70
2023/06/27 01:44:15;;;;;;;1.85;1.42;;;;;;;22.48;46.51;99000.56;5005513;28;104572;-70
2023/06/27 01:46:45;;;;;;;3.47;2.00;;;;;;;22.37;47.22;98998.28;5011998;28;103206;-69
2023/06/27 01:49:13;;;;;;;5.00;2.10;;;;;;;22.16;47.45;98997.25;5029584;27;102833;-70
2023/06/27 01:51:42;;;;;;;4.25;2.17;;;;;;;22.17;47.45;99002.47;5011097;27;103016;-70
2023/06/27 01:54:12;;;;;;;2.50;1.87;;;;;;;22.36;46.75;98993.94;5027088;27;104578;-69
2023/06/27 01:56:40;;;;;;;3.65;2.13;;;;;;;22.27;47.34;98992.31;5008846;28;103198;-69
2023/06/27 01:59:08;;;;;;;3.03;1.90;;;;;;;22.29;47.38;99001.03;5014636;27;102678;-69
2023/06/27 02:01:37;;;;;;;2.75;1.40;;;;;;;22.38;47.15;98994.59;5009615;28;102841;-70
2023/06/27 02:04:07;;;;;;;2.05;1.60;;;;;;;22.36;46.96;98995.78;5009789;28;104159;-69
2023/06/27 02:06:35;;;;;;;4.67;2.10;;;;;;;22.36;47.60;98990.41;5009245;28;103313;-69
2023/06/27 02:09:04;;;;;;;2.72;1.88;;;;;;;22.26;48.06;98996.00;5014337;28;102835;-69
2023/06/27 02:11:33;;;;;;;3.55;1.65;;;;;;;22.24;47.84;99002.56;5007349;28;104054;-70
2023/06/27 02:14:01;;;;;;;2.65;1.52;;;;;;;22.20;48.13;98999.44;5015037;27;105133;-70
2023/06/27 02:16:29;;;;;;;2.22;1.48;;;;;;;22.17;48.10;99007.84;5023824;27;104067;-70
2023/06/27 02:19:00;;;;;;;4.07;1.70;;;;;;;22.18;48.09;99008.66;5009950;27;103027;-70
2023/06/27 02:21:28;;;;;;;3.58;1.77;;;;;;;22.10;48.12;98998.78;5013076;28;102821;-70
2023/06/27 02:23:56;;;;;;;2.23;1.53;;;;;;;22.07;48.13;99001.00;5010252;28;104118;-70
2023/06/27 02:26:24;;;;;;;5.38;2.33;;;;;;;21.95;48.50;98998.69;5013332;28;103214;-70
2023/06/27 02:28:53;;;;;;;5.45;2.60;;;;;;;21.76;48.69;98990.19;5004557;28;103302;-70
2023/06/27 02:31:21;;;;;;;5.47;2.23;;;;;;;21.64;48.99;98987.03;5015321;27;103902;-70
2023/06/27 02:33:50;;;;;;;4.30;1.85;;;;;;;21.75;48.78;98988.53;5014538;28;104124;-70
2023/06/27 02:36:17;;;;;;;3.55;2.00;;;;;;;21.80;48.44;98988.84;5009247;28;103319;-70
2023/06/27 02:38:46;;;;;;;4.60;2.20;;;;;;;21.94;48.28;98985.44;5005339;28;102916;-70
2023/06/27 02:41:17;;;;;;;3.73;2.00;;;;;;;21.98;48.52;98983.25;5026325;27;104356;-70
2023/06/27 02:43:44;;;;;;;2.15;1.70;;;;;;;21.98;48.10;98986.75;5010656;28;104352;-70
2023/06/27 02:46:14;;;;;;;2.90;1.67;;;;;;;21.86;48.66;98983.59;5005555;28;103135;-70
2023/06/27 02:48:42;;;;;;;3.75;1.98;;;;;;;21.94;48.58;98993.50;5010568;28;102981;-70
2023/06/27 02:51:10;;;;;;;3.70;1.73;;;;;;;21.97;48.06;98995.84;5013069;28;104211;-70
2023/06/27 02:53:38;;;;;;;1.80;1.50;;;;;;;22.05;47.94;98993.09;5017655;27;103144;-70
2023/06/27 02:56:07;;;;;;;2.45;1.75;;;;;;;22.03;47.85;98992.47;5001068;28;103424;-69
2023/06/27 02:58:38;;;;;;;3.95;2.00;;;;;;;22.07;47.57;98993.75;5006884;28;102860;-70
2023/06/27 03:01:09;;;;;;;2.60;1.50;;;;;;;21.98;47.83;98996.69;5007449;28;104478;-70
2023/06/27 03:03:43;;;;;;;2.10;1.50;;;;;;;22.04;47.91;98991.44;5010613;28;104579;-70
2023/06/27 03:06:12;;;;;;;2.40;1.50;;;;;;;22.05;48.26;98993.09;5001918;28;104079;-69
2023/06/27 03:08:41;;;;;;;3.28;1.98;;;;;;;21.97;48.02;98997.69;5008699;28;102740;-70
2023/06/27 03:11:11;;;;;;;1.95;1.35;;;;;;;22.05;47.84;99001.19;5005479;28;104087;-70
2023/06/27 03:13:39;;;;;;;2.53;1.50;;;;;;;22.04;48.38;98994.13;5004746;28;105182;-69
2023/06/27 03:16:08;;;;;;;2.53;1.73;;;;;;;21.91;48.27;98996.53;5004540;28;103304;-70
2023/06/27 03:18:38;;;;;;;1.80;1.33;;;;;;;21.95;48.08;98992.50;5010016;28;102799;-70
2023/06/27 03:21:07;;;;;;;1.60;1.40;;;;;;;21.95;48.34;98997.88;5005235;28;102910;-70
2023/06/27 03:23:35;;;;;;;1.37;1.27;;;;;;;21.97;48.35;98993.16;5007684;28;104130;-70
2023/06/27 03:26:03;;;;;;;3.20;1.90;;;;;;;21.50;50.23;99009.25;5004879;28;104159;-69
2023/06/27 03:28:32;;;;;;;2.90;1.60;;;;;;;21.28;50.59;99000.06;5004731;28;103029;-69
2023/06/27 03:31:00;;;;;;;2.95;1.90;;;;;;;21.37;50.16;98996.38;5004896;27;103226;-70
2023/06/27 03:33:28;;;;;;;3.30;1.70;;;;;;;21.50;49.93;98997.69;5010205;28;103363;-73
2023/06/27 03:35:57;;;;;;;1.90;1.30;;;;;;;21.61;49.26;98991.94;4995067;28;102962;-70
2023/06/27 03:38:28;;;;;;;2.20;1.33;;;;;;;21.64;49.31;99005.03;4995268;28;103641;-71
2023/06/27 03:40:57;;;;;;;2.10;1.50;;;;;;;21.67;48.82;99005.50;4996717;28;104250;-70
2023/06/27 03:43:26;;;;;;;2.47;1.40;;;;;;;21.68;48.48;99009.03;4997546;28;104264;-70
2023/06/27 03:45:53;;;;;;;3.00;1.80;;;;;;;21.63;48.65;99009.56;4995291;28;103214;-70
2023/06/27 03:48:24;;;;;;;1.90;1.50;;;;;;;21.64;48.33;99011.22;4998089;28;104166;-71
2023/06/27 03:50:52;;;;;;;3.08;1.83;;;;;;;21.49;49.61;99012.13;4997264;28;103276;-70
2023/06/27 03:53:21;;;;;;;3.20;1.87;;;;;;;21.43;49.79;99013.66;4997232;28;104627;-70
2023/06/27 03:55:51;;;;;;;4.00;1.80;;;;;;;21.50;49.17;99019.19;5016527;27;103205;-69
2023/06/27 03:58:19;;;;;;;4.63;2.00;;;;;;;21.41;49.28;99009.47;4998248;28;102962;-70
2023/06/27 04:00:53;;;;;;;1.40;1.30;;;;;;;21.38;49.11;99008.81;5020814;27;104514;-71
2023/06/27 04:03:21;;;;;;;2.77;1.50;;;;;;;21.43;48.98;99007.44;4994834;28;104284;-70
2023/06/27 04:05:51;;;;;;;3.33;1.70;;;;;;;21.40;49.64;99019.38;5002270;27;103188;-70
2023/06/27 04:08:19;;;;;;;2.55;1.70;;;;;;;21.24;50.60;99012.19;4993781;28;103314;-72
2023/06/27 04:10:47;;;;;;;3.00;1.80;;;;;;;21.11;51.06;99025.28;4995983;28;102925;-73
2023/06/27 04:13:16;;;;;;;3.42;1.75;;;;;;;21.27;50.38;99019.06;4999825;28;103517;-70
2023/06/27 04:15:44;;;;;;;2.03;1.40;;;;;;;21.33;50.72;99013.84;4991917;28;106004;-70
2023/06/27 04:18:15;;;;;;;3.00;1.70;;;;;;;21.30;50.47;99019.59;4995783;28;102992;-70
2023/06/27 04:20:43;;;;;;;3.13;1.92;;;;;;;21.40;50.53;99019.38;5013477;27;104074;-70
2023/06/27 04:23:12;;;;;;;2.30;1.53;;;;;;;21.46;50.03;99020.53;5005171;28;104206;-70
2023/06/27 04:25:43;;;;;;;3.15;1.67;;;;;;;21.53;50.22;99024.22;5004703;28;102613;-70
2023/06/27 04:28:11;;;;;;;4.43;1.83;;;;;;;21.23;51.32;99018.56;5004333;28;102790;-70
2023/06/27 04:30:40;;;;;;;2.58;1.75;;;;;;;21.11;52.02;99014.53;5006689;28;102660;-69
2023/06/27 04:33:08;;;;;;;2.83;1.63;;;;;;;21.25;51.33;99024.59;5012186;28;105097;-70
2023/06/27 04:35:38;;;;;;;4.80;2.20;;;;;;;20.84;52.50;99033.69;5005896;28;103601;-70
2023/06/27 04:38:08;;;;;;;2.60;1.80;;;;;;;20.97;51.92;99033.19;4999441;28;102931;-70
2023/06/27 04:40:38;;;;;;;4.30;2.00;;;;;;;20.98;51.21;99029.47;4997408;28;103437;-69
2023/06/27 04:43:06;;;;;;;2.58;1.77;;;;;;;21.17;50.91;99021.09;5014932;27;104045;-70
2023/06/27 04:45:34;;;;;;;5.50;2.40;;;;;;;20.75;51.96;99026.63;5003436;28;103185;-73
2023/06/27 04:48:03;;;;;;;5.65;2.10;;;;;;;20.62;52.42;99028.97;5010123;28;102768;-73
2023/06/27 04:50:31;;;;;;;3.67;2.17;;;;;;;20.97;50.95;99025.94;5013897;28;102861;-73
2023/06/27 04:52:59;;;;;;;4.20;2.10;;;;;;;21.14;50.31;99027.63;5006363;28;104206;-72
2023/06/27 04:55:27;;;;;;;4.53;2.38;;;;;;;20.99;51.06;99034.69;5013427;28;103523;-73
2023/06/27 04:57:55;;;;;;;6.82;2.42;;;;;;;21.19;50.30;99033.34;5013305;28;102688;-69
2023/06/27 05:00:23;;;;;;;4.68;2.83;;;;;;;21.41;50.14;99039.03;5010003;28;103875;-70
2023/06/27 05:02:51;;;;;;;2.33;1.80;;;;;;;21.39;49.98;99044.56;5008167;28;104065;-70
2023/06/27 05:05:20;;;;;;;3.65;1.90;;;;;;;21.49;51.41;99039.00;5007980;28;103227;-70
2023/06/27 05:07:48;;;;;;;19.45;4.10;;;;;;;21.09;52.47;99038.06;5008427;28;102727;-70
2023/06/27 05:10:16;;;;;;;25.50;5.10;;;;;;;21.39;51.65;99042.72;5010726;28;103804;-70
2023/06/27 05:12:44;;;;;;;8.82;2.90;;;;;;;21.56;50.71;99040.81;5007647;28;104050;-68
2023/06/27 05:15:12;;;;;;;8.02;2.55;;;;;;;21.55;51.49;99044.53;5008150;28;103256;-70
2023/06/27 05:17:42;;;;;;;7.30;2.22;;;;;;;21.53;51.93;99045.72;5006947;28;102923;-70
2023/06/27 05:20:12;;;;;;;7.22;2.30;;;;;;;21.33;52.36;99035.34;5008924;28;104096;-70
2023/06/27 05:22:41;;;;;;;5.38;2.38;;;;;;;21.43;51.84;99035.16;5008344;28;104359;-69
2023/06/27 05:25:09;;;;;;;4.28;2.13;;;;;;;21.58;50.47;99037.97;5013738;28;103264;-69
2023/06/27 05:27:37;;;;;;;6.60;2.53;;;;;;;21.61;51.18;99033.09;5010946;28;102620;-69
2023/06/27 05:30:06;;;;;;;5.17;2.10;;;;;;;21.83;50.09;99035.06;5014199;28;102895;-69
2023/06/27 05:32:34;;;;;;;6.37;2.30;;;;;;;21.60;52.08;99036.78;5010525;28;104914;-69
2023/06/27 05:35:02;;;;;;;4.18;2.00;;;;;;;21.32;53.07;99039.03;5010594;28;103199;-69
2023/06/27 05:37:30;;;;;;;4.97;2.00;;;;;;;21.63;51.85;99041.84;5009759;28;102735;-69
2023/06/27 05:40:00;;;;;;;3.45;1.80;;;;;;;21.86;51.36;99047.31;5010304;28;104176;-70
2023/06/27 05:42:28;;;;;;;3.92;2.42;;;;;;;21.69;51.06;99051.91;4994274;28;103219;-71
2023/06/27 05:44:56;;;;;;;2.30;1.67;;;;;;;21.84;51.30;99049.31;4999576;28;103423;-70
2023/06/27 05:47:23;;;;;;;2.13;1.50;;;;;;;22.24;49.96;99045.63;5008530;28;102617;-73
2023/06/27 05:49:52;;;;;;;2.97;1.63;;;;;;;21.98;48.47;99050.50;5006614;28;102750;-70
2023/06/27 05:52:20;;;;;;;4.82;2.60;;;;;;;21.54;50.86;99055.44;5009534;28;103617;-71
2023/06/27 05:54:48;;;;;;;3.72;2.25;;;;;;;21.96;50.05;99053.34;5007960;28;103172;-71
2023/06/27 05:57:18;;;;;;;7.82;2.70;;;;;;;21.39;51.58;99066.06;5010625;28;102937;-72
2023/06/27 05:59:46;;;;;;;3.95;2.30;;;;;;;21.89;48.90;99055.06;5014464;27;103502;-71
2023/06/27 06:02:14;;;;;;;5.87;2.60;;;;;;;22.03;48.13;99059.72;4999686;28;103283;-71
2023/06/27 06:04:42;;;;;;;3.17;2.38;;;;;;;22.41;47.94;99055.31;5009469;28;103482;-77
2023/06/27 06:07:10;;;;;;;3.50;1.90;;;;;;;22.52;46.83;99052.19;5012212;28;102658;-78
2023/06/27 06:09:37;;;;;;;3.13;1.73;;;;;;;22.71;46.62;99043.69;4995006;28;103915;-77
2023/06/27 06:12:06;;;;;;;3.70;1.77;;;;;;;22.75;46.55;99033.41;5010220;28;103951;-77
2023/06/27 06:14:35;;;;;;;3.42;2.13;;;;;;;22.19;47.33;99058.78;5004590;28;103402;-75
2023/06/27 06:17:03;;;;;;;2.67;2.20;;;;;;;22.34;46.97;99052.47;5007112;28;102811;-75
2023/06/27 06:19:31;;;;;;;5.13;1.90;;;;;;;22.44;47.57;99045.03;5011066;28;103827;-75
2023/06/27 06:21:59;;;;;;;5.37;2.17;;;;;;;22.13;47.28;99049.56;5006660;28;103343;-75
2023/06/27 06:24:27;;;;;;;4.30;1.92;;;;;;;21.79;47.47;99051.69;4993810;28;103978;-75
2023/06/27 06:26:55;;;;;;;6.03;1.70;;;;;;;22.62;46.25;99046.59;5007781;28;103002;-75
2023/06/27 06:29:23;;;;;;;5.00;2.08;;;;;;;21.78;46.76;99055.41;4988601;28;104976;-73
2023/06/27 06:31:52;;;;;;;2.67;1.67;;;;;;;22.45;46.11;99053.94;5009398;28;103858;-75
2023/06/27 06:34:22;;;;;;;4.65;1.95;;;;;;;21.74;47.06;99054.91;5008316;28;103177;-76
2023/06/27 06:36:50;;;;;;;3.83;1.83;;;;;;;21.59;47.22;99055.78;4986217;28;102732;-75
2023/06/27 06:39:18;;;;;;;4.53;2.13;;;;;;;21.34;47.91;99053.16;5009124;28;102682;-75
2023/06/27 06:41:45;;;;;;;2.95;1.70;;;;;;;21.61;47.65;99061.84;4987692;28;103583;-74
2023/06/27 06:44:16;;;;;;;4.50;1.90;;;;;;;21.09;48.28;99059.56;4992815;28;102977;-75
2023/06/27 06:46:50;;;;;;;2.97;2.00;;;;;;;21.91;47.14;99061.94;4991054;28;103006;-76
2023/06/27 06:49:40;;;;;;;3.53;1.80;;;;;;;21.53;46.98;99056.47;5008492;28;102676;-74
2023/06/27 06:52:20;;;;;;;2.05;1.52;;;;;;;21.95;46.05;99062.44;5012146;28;103321;-75
2023/06/27 06:54:48;;;;;;;3.30;2.05;;;;;;;21.25;46.79;99061.38;5007229;28;103464;-75
2023/06/27 06:57:16;;;;;;;3.92;1.73;;;;;;;22.63;46.07;99061.72;5008086;28;103043;-76
2023/06/27 06:59:44;;;;;;;3.57;1.90;;;;;;;23.15;44.33;99067.25;5008187;28;106222;-76
2023/06/27 07:02:12;;;;;;;3.30;1.80;;;;;;;21.78;46.13;99060.78;4991014;28;104312;-75
2023/06/27 07:04:41;;;;;;;3.05;1.70;;;;;;;21.74;47.99;99060.28;5016628;28;103315;-78
2023/06/27 07:07:09;;;;;;;1.47;1.23;;;;;;;22.99;44.84;99065.53;5009133;28;102631;-76
2023/06/27 07:09:37;;;;;;;2.33;1.30;;;;;;;23.47;44.31;99057.03;5008225;28;102894;-76
2023/06/27 07:12:11;;;;;;;2.85;1.90;;;;;;;22.75;44.29;99063.88;5013348;28;103345;-76
2023/06/27 07:14:39;;;;;;;2.00;1.55;;;;;;;23.36;43.78;99060.13;5013494;28;103255;-76
2023/06/27 07:17:07;;;;;;;4.10;2.03;;;;;;;23.46;44.20;99057.22;5012074;28;102907;-76
2023/06/27 07:19:35;;;;;;;2.33;1.52;;;;;;;22.28;43.80;99057.75;5010043;28;104034;-75
2023/06/27 07:22:05;;;;;;;2.28;1.60;;;;;;;23.00;44.25;99057.28;5008784;28;104669;-75
2023/06/27 07:24:35;;;;;;;3.37;1.70;;;;;;;22.70;44.04;99052.81;5009098;28;103263;-75
2023/06/27 07:27:04;;;;;;;4.03;1.80;;;;;;;22.56;44.82;99050.00;5006004;28;105933;-75
2023/06/27 07:29:31;;;;;;;5.03;1.77;;;;;;;23.77;43.60;99046.28;5006668;28;104145;-74
2023/06/27 07:32:00;;;;;;;3.78;1.70;;;;;;;22.60;43.45;99056.72;5015177;28;103071;-75
2023/06/27 07:34:27;;;;;;;2.87;1.60;;;;;;;22.86;44.23;99051.81;5002961;28;103221;-75
2023/06/27 07:36:55;;;;;;;2.90;1.50;;;;;;;23.84;42.98;99053.44;5005726;28;104007;-74
2023/06/27 07:39:24;;;;;;;2.87;1.60;;;;;;;22.95;44.38;99058.84;5009601;28;102880;-75
2023/06/27 07:41:52;;;;;;;3.07;1.60;;;;;;;23.22;43.55;99054.72;5010346;28;104350;-74
2023/06/27 07:44:20;;;;;;;4.47;1.77;;;;;;;22.79;43.26;99053.56;5009890;28;103205;-77
2023/06/27 07:46:48;;;;;;;4.77;2.00;;;;;;;22.68;44.52;99051.31;5005077;28;103132;-76
2023/06/27 07:49:16;;;;;;;5.00;1.90;;;;;;;23.20;44.34;99054.91;5015427;28;104434;-75
2023/06/27 07:51:45;;;;;;;4.47;1.93;;;;;;;22.47;45.30;99062.66;5005060;28;103273;-75
2023/06/27 07:54:13;;;;;;;4.57;2.22;;;;;;;22.44;44.72;99061.16;5003100;28;103175;-74
2023/06/27 07:56:43;;;;;;;3.43;1.70;;;;;;;23.87;42.24;99057.59;5009825;28;102847;-75
2023/06/27 07:59:12;;;;;;;5.97;1.90;;;;;;;23.52;43.25;99065.41;4991888;28;104151;-74
2023/06/27 08:01:41;;;;;;;4.25;1.73;;;;;;;23.74;43.09;99060.13;5013827;28;104186;-78
2023/06/27 08:04:09;;;;;;;2.90;1.85;;;;;;;23.43;42.63;99054.91;5006124;28;103504;-76
2023/06/27 08:06:37;;;;;;;3.42;1.85;;;;;;;24.67;41.28;99059.25;5006868;28;103198;-75
2023/06/27 08:09:05;;;;;;;4.32;2.30;;;;;;;22.56;44.43;99066.16;5011141;28;103682;-76
2023/06/27 08:11:33;;;;;;;5.07;2.20;;;;;;;22.48;45.18;99057.09;5006468;28;103055;-77
2023/06/27 08:14:03;;;;;;;4.82;2.38;;;;;;;22.95;43.45;99050.75;5003720;28;103327;-77
2023/06/27 08:16:30;;;;;;;4.43;2.28;;;;;;;22.57;44.31;99046.31;5005218;28;102673;-76
2023/06/27 08:18:58;;;;;;;1.80;1.50;;;;;;;24.33;43.32;99039.34;5011936;28;103416;-76
2023/06/27 08:21:26;;;;;;;3.63;1.70;;;;;;;24.79;40.99;99038.84;5006700;28;103267;-76
2023/06/27 08:23:54;;;;;;;1.93;1.37;;;;;;;24.63;41.61;99033.66;5009642;28;103230;-76
2023/06/27 08:26:26;;;;;;;3.30;1.70;;;;;;;25.08;41.13;99037.84;5006931;28;102739;-78
2023/06/27 08:28:57;;;;;;;3.20;1.80;;;;;;;24.52;41.52;99030.63;4992174;28;103963;-77
2023/06/27 08:31:26;;;;;;;3.00;2.10;;;;;;;23.81;41.82;99031.38;4987880;28;104004;-76
2023/06/27 08:33:55;;;;;;;3.03;1.63;;;;;;;24.87;40.88;99028.94;5005754;28;103191;-77
2023/06/27 08:36:23;;;;;;;3.67;2.00;;;;;;;24.69;41.25;99021.25;4993973;28;103110;-76
2023/06/27 08:38:51;;;;;;;2.65;1.70;;;;;;;24.20;42.30;99029.22;5006528;28;103506;-77
2023/06/27 08:41:19;;;;;;;4.53;2.20;;;;;;;24.50;40.11;99019.19;5005998;28;103803;-77
2023/06/27 08:43:50;;;;;;;3.97;2.13;;;;;;;23.63;41.92;99024.50;5012528;28;103355;-75
2023/06/27 08:46:21;;;;;;;4.97;2.05;;;;;;;24.46;40.69;99015.19;5004236;28;102934;-76
2023/06/27 08:49:01;;;;;;;3.25;1.88;;;;;;;24.79;39.95;99016.34;4988610;28;103975;-78
2023/06/27 08:51:40;;;;;;;2.20;1.42;;;;;;;25.49;40.66;99016.34;5008365;28;103398;-77
2023/06/27 08:54:14;;;;;;;3.77;2.00;;;;;;;24.74;41.35;99008.84;4987614;28;104145;-75
2023/06/27 08:56:51;;;;;;;2.63;1.57;;;;;;;25.50;40.02;99014.50;5006575;28;102998;-76
2023/06/27 08:59:24;;;;;;;5.57;2.33;;;;;;;25.11;41.21;99009.59;5004310;28;102952;-70
2023/06/27 09:01:54;;;;;;;2.97;1.73;;;;;;;24.66;41.16;99010.81;5001269;28;103336;-71
2023/06/27 09:04:25;;;;;;;4.53;2.00;;;;;;;25.27;39.34;99010.16;4991178;28;103987;-70
2023/06/27 09:06:53;;;;;;;4.85;1.88;;;;;;;25.87;39.84;99017.63;4988658;28;102903;-69
2023/06/27 09:09:24;;;;;;;3.60;1.80;;;;;;;26.94;38.59;99004.25;4988820;28;104098;-70
2023/06/27 09:11:53;;;;;;;3.80;2.20;;;;;;;26.72;37.19;99006.28;5006349;28;104405;-70
2023/06/27 09:14:21;;;;;;;3.00;1.90;;;;;;;25.58;37.26;99000.81;4993133;28;103140;-71
2023/06/27 09:16:52;;;;;;;3.47;1.75;;;;;;;26.30;38.68;99006.59;5002450;28;102858;-70
2023/06/27 09:19:21;;;;;;;5.28;1.90;;;;;;;25.88;37.96;99003.03;5004387;28;103702;-70
2023/06/27 09:21:50;;;;;;;5.77;2.40;;;;;;;25.30;39.46;99001.63;5003446;28;103316;-70
2023/06/27 09:24:22;;;;;;;4.40;2.17;;;;;;;25.60;38.25;98994.16;5005131;28;103811;-71
2023/06/27 09:26:50;;;;;;;6.00;2.27;;;;;;;26.26;38.91;98989.06;5003729;28;102847;-70
2023/06/27 09:29:19;;;;;;;4.40;1.98;;;;;;;25.94;37.74;98996.84;5006955;27;102735;-70
2023/06/27 09:31:50;;;;;;;5.80;1.90;;;;;;;26.12;38.29;98993.59;5011295;28;103309;-70
2023/06/27 09:34:28;;;;;;;5.20;2.00;;;;;;;25.77;37.09;98995.50;5010439;28;103965;-70
2023/06/27 09:37:02;;;;;;;5.32;2.28;;;;;;;25.71;37.27;99001.72;4997712;28;103754;-70
2023/06/27 09:39:32;;;;;;;2.78;1.75;;;;;;;26.65;37.57;98999.16;5002095;28;103931;-70
2023/06/27 09:42:02;;;;;;;3.47;1.67;;;;;;;27.55;36.78;98988.56;5013239;28;104035;-70
2023/06/27 09:44:30;;;;;;;4.55;2.05;;;;;;;26.79;36.34;98996.31;5014408;28;104754;-69
2023/06/27 09:46:58;;;;;;;5.50;2.00;;;;;;;26.50;36.29;98992.06;5008640;28;102897;-70
2023/06/27 09:49:31;;;;;;;3.65;1.95;;;;;;;26.40;35.78;98996.19;5008946;28;103757;-71
2023/06/27 09:52:05;;;;;;;5.10;2.00;;;;;;;25.48;38.28;98998.47;5007500;28;104285;-69
2023/06/27 09:54:33;;;;;;;5.43;1.83;;;;;;;26.19;37.50;98986.34;5012537;28;103278;-71
2023/06/27 09:57:02;;;;;;;3.53;1.50;;;;;;;27.34;36.13;98988.78;5006139;28;102732;-70
2023/06/27 09:59:30;;;;;;;3.13;1.73;;;;;;;26.42;36.14;98988.69;4994796;28;103631;-70
2023/06/27 10:02:02;;;;;;;3.55;1.95;;;;;;;26.23;37.43;98984.06;5005950;28;104310;-71
2023/06/27 10:04:31;;;;;;;4.90;1.95;;;;;;;26.83;35.97;98983.19;4990937;28;103663;-70
2023/06/27 10:07:09;;;;;;;3.28;1.60;;;;;;;27.61;35.08;98985.00;5010598;28;102992;-71
2023/06/27 10:09:38;;;;;;;4.95;2.20;;;;;;;26.03;36.16;98986.66;5012539;28;103731;-76
2023/06/27 10:12:08;;;;;;;4.50;2.05;;;;;;;27.28;35.82;98989.63;5011726;28;103207;-77
2023/06/27 10:14:36;;;;;;;4.93;2.20;;;;;;;26.38;36.00;98982.03;5009375;28;103228;-76
2023/06/27 10:17:06;;;;;;;3.53;2.03;;;;;;;26.48;36.63;98985.16;4994989;28;102925;-77
2023/06/27 10:19:39;;;;;;;5.07;2.15;;;;;;;25.53;37.90;98987.88;5007934;28;102803;-77
2023/06/27 10:22:14;;;;;;;3.42;1.83;;;;;;;26.46;36.92;98985.38;5016422;28;103888;-75
2023/06/27 10:24:45;;;;;;;3.55;1.80;;;;;;;26.64;35.11;98987.47;4998384;28;102762;-75
2023/06/27 10:27:20;;;;;;;3.47;1.60;;;;;;;27.19;34.12;98988.16;5007358;28;102790;-75
2023/06/27 10:29:49;;;;;;;4.60;1.70;;;;;;;26.90;36.08;98981.28;5011763;28;102579;-75
2023/06/27 10:32:18;;;;;;;4.85;2.08;;;;;;;28.04;35.51;98977.97;5012558;28;102971;-75
2023/06/27 10:34:47;;;;;;;3.60;1.83;;;;;;;27.54;34.71;98973.31;5012187;28;103234;-76
2023/06/27 10:37:25;;;;;;;3.28;1.50;;;;;;;28.75;33.80;98975.94;4998928;28;103215;-76
2023/06/27 10:39:57;;;;;;;3.70;1.83;;;;;;;28.63;34.17;98974.97;5016503;27;102775;-76
2023/06/27 10:42:31;;;;;;;3.27;1.80;;;;;;;27.46;35.65;98985.25;5015173;28;103255;-75
2023/06/27 10:45:01;;;;;;;5.28;2.00;;;;;;;27.05;34.22;98987.34;5012909;28;103043;-76
2023/06/27 10:47:34;;;;;;;3.42;2.13;;;;;;;27.53;35.17;98985.25;5015015;28;102650;-75
2023/06/27 10:50:35;;;;;;;4.88;1.80;;;;;;;26.40;36.18;98990.78;4998607;28;104185;-76
2023/06/27 10:53:07;;;;;;;3.63;1.83;;;;;;;26.82;35.21;98989.63;5007839;28;104387;-73
2023/06/27 10:55:37;;;;;;;3.05;1.60;;;;;;;27.06;34.25;98987.13;5015687;28;103302;-75
2023/06/27 10:58:10;;;;;;;4.90;2.05;;;;;;;27.75;35.04;98991.22;5014492;28;102619;-74
2023/06/27 11:00:44;;;;;;;3.63;1.80;;;;;;;26.57;35.47;98992.06;4999349;28;102719;-75
2023/06/27 11:03:18;;;;;;;2.80;1.92;;;;;;;28.07;34.08;98984.88;4993811;28;103016;-70
2023/06/27 11:05:51;;;;;;;4.60;1.92;;;;;;;26.61;35.77;98992.50;4994183;28;103179;-69
2023/06/27 11:08:22;;;;;;;3.45;1.73;;;;;;;27.58;35.68;98986.28;4988599;28;102820;-73
2023/06/27 11:11:06;;;;;;;3.80;1.83;;;;;;;26.52;36.92;98993.72;5002134;28;102916;-72
2023/06/27 11:13:36;;;;;;;3.83;1.90;;;;;;;25.74;36.42;99003.22;4998593;28;104482;-73
2023/06/27 11:16:05;;;;;;;4.35;1.85;;;;;;;26.54;38.19;98997.06;5012141;28;103418;-72
2023/06/27 11:18:34;;;;;;;4.95;1.80;;;;;;;26.64;35.40;98994.81;5006778;28;102998;-72
2023/06/27 11:21:03;;;;;;;5.10;1.73;;;;;;;27.60;35.06;98989.59;4987900;28;104496;-71
2023/06/27 11:23:32;;;;;;;2.53;1.60;;;;;;;26.68;35.54;98994.19;5004885;28;102621;-72
2023/06/27 11:26:00;;;;;;;3.47;2.00;;;;;;;25.44;37.66;98997.16;4994465;28;103288;-72
2023/06/27 11:28:27;;;;;;;3.38;1.90;;;;;;;25.42;37.40;98996.53;4985663;28;104463;-72
2023/06/27 11:31:00;;;;;;;4.07;1.70;;;;;;;26.13;37.17;98994.44;5018084;28;103805;-72
2023/06/27 11:33:28;;;;;;;4.43;1.70;;;;;;;27.02;34.65;98985.91;4993882;28;103872;-73
2023/06/27 11:35:59;;;;;;;3.78;1.77;;;;;;;27.32;34.24;98980.00;5011251;28;103499;-74